Time;durP1;ratioP1;P1;durP2;ratioP2;P2;SDS_P1;SDS_P2;PMS_P1;PMS_P2;Temp;Humidity;BMP_temperature;BMP_pressure;BME280_temperature;BME280_humidity;BME280_pressure;Samples;Min_cycle;Max_cycle;Signal;HPM_P1;HPM_P2
2023/05/28 00:01:29;;;;;;;24.80;23.10;;;;;;;;;;5075000;28;20439;-78
2023/05/28 00:03:55;;;;;;;24.73;23.03;;;;;;;;;;5075061;28;20461;-78
2023/05/28 00:06:24;;;;;;;23.27;21.80;;;;;;;;;;5074399;28;20479;-79
2023/05/28 00:08:51;;;;;;;23.20;21.90;;;;;;;;;;5074931;28;20449;-78
2023/05/28 00:11:18;;;;;;;25.10;23.30;;;;;;;;;;5073688;28;20496;-78
2023/05/28 00:13:45;;;;;;;24.73;22.87;;;;;;;;;;5074873;28;20449;-79
2023/05/28 00:16:13;;;;;;;24.03;22.37;;;;;;;;;;5074336;28;20505;-78
2023/05/28 00:18:41;;;;;;;23.97;22.47;;;;;;;;;;5074694;28;20544;-79
2023/05/28 00:21:08;;;;;;;23.70;22.20;;;;;;;;;;5073716;28;20491;-79
2023/05/28 00:23:36;;;;;;;24.53;22.83;;;;;;;;;;5075441;28;20458;-79
2023/05/28 00:26:03;;;;;;;23.73;22.27;;;;;;;;;;5074215;28;20450;-79
2023/05/28 00:28:30;;;;;;;24.23;22.43;;;;;;;;;;5075079;28;21064;-78
2023/05/28 00:30:57;;;;;;;23.70;22.20;;;;;;;;;;5074667;28;20496;-79
2023/05/28 00:33:24;;;;;;;25.07;23.40;;;;;;;;;;5075142;28;20921;-79
2023/05/28 00:35:55;;;;;;;23.60;21.90;;;;;;;;;;5073678;28;20615;-79
2023/05/28 00:38:22;;;;;;;23.90;22.00;;;;;;;;;;5074951;28;20458;-79
2023/05/28 00:40:51;;;;;;;24.80;22.70;;;;;;;;;;5074991;28;20444;-79
2023/05/28 00:43:19;;;;;;;23.53;21.80;;;;;;;;;;5078237;28;20871;-79
2023/05/28 00:45:48;;;;;;;24.37;22.50;;;;;;;;;;5078350;28;20525;-80
2023/05/28 00:48:15;;;;;;;24.63;22.93;;;;;;;;;;5077962;28;20584;-79
2023/05/28 00:50:43;;;;;;;23.87;22.30;;;;;;;;;;5078875;28;20445;-79
2023/05/28 00:53:11;;;;;;;23.87;22.17;;;;;;;;;;5078057;28;20449;-78
2023/05/28 00:55:38;;;;;;;23.83;22.13;;;;;;;;;;5077437;28;20853;-78
2023/05/28 00:58:07;;;;;;;24.13;22.43;;;;;;;;;;5077686;28;20469;-78
2023/05/28 01:00:34;;;;;;;24.13;22.53;;;;;;;;;;5078064;28;20509;-78
2023/05/28 01:03:02;;;;;;;24.47;22.53;;;;;;;;;;5078536;28;20464;-79
2023/05/28 01:05:31;;;;;;;23.53;21.63;;;;;;;;;;5077936;28;20484;-79
2023/05/28 01:07:58;;;;;;;23.77;22.27;;;;;;;;;;5078385;28;20491;-79
2023/05/28 01:10:25;;;;;;;23.63;22.13;;;;;;;;;;5076800;28;20477;-78
2023/05/28 01:12:53;;;;;;;24.43;22.40;;;;;;;;;;5077773;28;20470;-80
2023/05/28 01:15:21;;;;;;;23.80;22.10;;;;;;;;;;5077291;28;20428;-78
2023/05/28 01:17:48;;;;;;;24.10;22.43;;;;;;;;;;5077364;28;20445;-78
2023/05/28 01:20:15;;;;;;;23.83;22.13;;;;;;;;;;5078007;28;20444;-80
2023/05/28 01:22:47;;;;;;;24.00;22.60;;;;;;;;;;5078424;28;20461;-79
2023/05/28 01:25:16;;;;;;;23.30;21.80;;;;;;;;;;5077512;28;20449;-79
2023/05/28 01:27:44;;;;;;;23.20;21.70;;;;;;;;;;5076808;28;20448;-78
2023/05/28 01:30:11;;;;;;;24.30;22.70;;;;;;;;;;5075858;28;20853;-79
2023/05/28 01:32:38;;;;;;;24.10;22.30;;;;;;;;;;5076937;28;20449;-78
2023/05/28 01:35:06;;;;;;;23.40;21.80;;;;;;;;;;5076752;28;20450;-77
2023/05/28 01:37:35;;;;;;;23.90;21.97;;;;;;;;;;5076042;28;20461;-78
2023/05/28 01:40:03;;;;;;;24.13;22.23;;;;;;;;;;5075632;28;20481;-78
2023/05/28 01:42:32;;;;;;;23.10;21.60;;;;;;;;;;5076532;28;20448;-78
2023/05/28 01:45:00;;;;;;;24.27;22.57;;;;;;;;;;5078376;28;20458;-79
2023/05/28 01:47:27;;;;;;;25.33;23.57;;;;;;;;;;5087598;28;20477;-78
2023/05/28 01:49:54;;;;;;;23.57;22.07;;;;;;;;;;5086651;28;20474;-78
2023/05/28 01:52:21;;;;;;;24.23;22.73;;;;;;;;;;5080393;28;20488;-79
2023/05/28 01:54:48;;;;;;;24.83;23.17;;;;;;;;;;5075271;28;20445;-79
2023/05/28 01:57:15;;;;;;;24.03;22.23;;;;;;;;;;5075921;28;20507;-78
2023/05/28 01:59:44;;;;;;;23.53;21.80;;;;;;;;;;5076024;28;20451;-78
2023/05/28 02:02:11;;;;;;;24.03;22.37;;;;;;;;;;5076692;28;20470;-79
2023/05/28 02:04:38;;;;;;;23.03;21.53;;;;;;;;;;5076023;28;21111;-77
2023/05/28 02:07:06;;;;;;;23.03;21.33;;;;;;;;;;5075556;28;20445;-78
2023/05/28 02:09:33;;;;;;;23.83;22.33;;;;;;;;;;5075580;28;20452;-78
2023/05/28 02:12:02;;;;;;;23.93;22.20;;;;;;;;;;5076240;28;20443;-78
2023/05/28 02:14:29;;;;;;;23.03;21.60;;;;;;;;;;5075843;28;20792;-78
2023/05/28 02:16:58;;;;;;;23.70;22.20;;;;;;;;;;5075078;28;20481;-78
2023/05/28 02:19:27;;;;;;;23.40;21.90;;;;;;;;;;5075638;28;20486;-77
2023/05/28 02:21:54;;;;;;;23.10;21.20;;;;;;;;;;5075234;28;20878;-79
2023/05/28 02:24:21;;;;;;;22.70;21.00;;;;;;;;;;5075615;28;20481;-78
2023/05/28 02:26:48;;;;;;;23.77;22.03;;;;;;;;;;5074666;28;20445;-77
2023/05/28 02:29:15;;;;;;;23.67;21.80;;;;;;;;;;5075048;28;20481;-77
2023/05/28 02:31:42;;;;;;;23.23;21.50;;;;;;;;;;5075715;28;20520;-78
2023/05/28 02:34:10;;;;;;;22.57;21.17;;;;;;;;;;5074791;28;20469;-78
2023/05/28 02:36:37;;;;;;;23.73;22.10;;;;;;;;;;5075061;28;20449;-77
2023/05/28 02:39:05;;;;;;;22.70;21.20;;;;;;;;;;5075039;28;20969;-78
2023/05/28 02:41:32;;;;;;;22.57;21.07;;;;;;;;;;5067466;28;20445;-78
2023/05/28 02:43:59;;;;;;;23.80;22.23;;;;;;;;;;5074511;28;20473;-78
2023/05/28 02:46:26;;;;;;;22.93;21.43;;;;;;;;;;5075612;28;20449;-77
2023/05/28 02:48:53;;;;;;;23.17;21.40;;;;;;;;;;5075025;28;20540;-78
2023/05/28 02:51:21;;;;;;;21.63;20.30;;;;;;;;;;5074834;28;20470;-78
2023/05/28 02:53:48;;;;;;;22.17;20.80;;;;;;;;;;5074806;28;20454;-77
2023/05/28 02:56:15;;;;;;;22.57;20.83;;;;;;;;;;5073738;28;20569;-78
2023/05/28 02:58:42;;;;;;;21.67;20.27;;;;;;;;;;5075010;28;20465;-77
2023/05/28 03:01:09;;;;;;;23.77;22.00;;;;;;;;;;5074845;28;20516;-78
2023/05/28 03:03:36;;;;;;;22.30;20.67;;;;;;;;;;5074963;28;20504;-77
2023/05/28 03:06:03;;;;;;;22.47;21.13;;;;;;;;;;5073854;28;20450;-78
2023/05/28 03:08:31;;;;;;;23.10;21.30;;;;;;;;;;5074922;28;20540;-78
2023/05/28 03:10:58;;;;;;;23.80;22.23;;;;;;;;;;5073722;28;20485;-78
2023/05/28 03:13:25;;;;;;;21.33;20.07;;;;;;;;;;5074784;28;20453;-77
2023/05/28 03:15:52;;;;;;;23.30;21.60;;;;;;;;;;5074259;28;20485;-78
2023/05/28 03:18:19;;;;;;;21.60;20.40;;;;;;;;;;5074960;28;20449;-79
2023/05/28 03:20:46;;;;;;;22.77;21.20;;;;;;;;;;5074371;28;20445;-78
2023/05/28 03:23:13;;;;;;;21.80;20.50;;;;;;;;;;5073108;28;20533;-75
2023/05/28 03:25:41;;;;;;;22.60;21.17;;;;;;;;;;5072636;28;20568;-75
2023/05/28 03:28:09;;;;;;;22.47;20.97;;;;;;;;;;5073120;28;20518;-76
2023/05/28 03:30:36;;;;;;;22.53;21.27;;;;;;;;;;5073075;28;20519;-75
2023/05/28 03:33:03;;;;;;;22.97;21.07;;;;;;;;;;5072417;28;20462;-75
2023/05/28 03:35:30;;;;;;;22.20;20.53;;;;;;;;;;5072712;28;20542;-75
2023/05/28 03:37:57;;;;;;;21.77;20.47;;;;;;;;;;5072731;28;20450;-75
2023/05/28 03:40:24;;;;;;;22.50;21.10;;;;;;;;;;5073183;28;20523;-75
2023/05/28 03:42:53;;;;;;;22.00;20.57;;;;;;;;;;5073144;28;20441;-75
2023/05/28 03:45:20;;;;;;;22.37;21.10;;;;;;;;;;5073210;28;20445;-75
2023/05/28 03:47:47;;;;;;;21.80;20.40;;;;;;;;;;5072156;28;20779;-75
2023/05/28 03:50:14;;;;;;;22.50;20.90;;;;;;;;;;5071961;28;21037;-75
2023/05/28 03:52:41;;;;;;;22.60;21.00;;;;;;;;;;5072429;28;21036;-75
2023/05/28 03:55:09;;;;;;;23.27;21.47;;;;;;;;;;5072366;28;20901;-76
2023/05/28 03:57:36;;;;;;;22.60;20.60;;;;;;;;;;5072538;28;20450;-76
2023/05/28 04:00:06;;;;;;;22.30;20.80;;;;;;;;;;5072058;28;20985;-76
2023/05/28 04:02:33;;;;;;;23.03;21.40;;;;;;;;;;5072747;28;20416;-76
2023/05/28 04:05:00;;;;;;;22.73;21.33;;;;;;;;;;5072644;28;20453;-75
2023/05/28 04:07:27;;;;;;;23.73;21.87;;;;;;;;;;5072343;28;20425;-75
2023/05/28 04:09:54;;;;;;;22.60;20.97;;;;;;;;;;5072103;28;20986;-74
2023/05/28 04:12:21;;;;;;;21.80;20.50;;;;;;;;;;5071909;28;21035;-75
2023/05/28 04:14:48;;;;;;;22.93;21.33;;;;;;;;;;5072384;28;20557;-75
2023/05/28 04:17:17;;;;;;;21.30;20.00;;;;;;;;;;5071295;28;20515;-75
2023/05/28 04:19:45;;;;;;;22.20;20.80;;;;;;;;;;5072423;28;20982;-75
2023/05/28 04:22:12;;;;;;;23.33;21.27;;;;;;;;;;5073052;28;20453;-75
2023/05/28 04:24:39;;;;;;;22.00;20.50;;;;;;;;;;5072690;28;20450;-75
2023/05/28 04:27:07;;;;;;;23.07;21.20;;;;;;;;;;5071989;28;20495;-75
2023/05/28 04:29:34;;;;;;;22.40;20.90;;;;;;;;;;5071526;28;20493;-75
2023/05/28 04:32:03;;;;;;;21.70;20.40;;;;;;;;;;5072421;28;20456;-75
2023/05/28 04:34:33;;;;;;;21.80;20.50;;;;;;;;;;5072310;28;20560;-75
2023/05/28 04:37:00;;;;;;;23.63;21.80;;;;;;;;;;5072028;28;20430;-75
2023/05/28 04:39:27;;;;;;;24.53;22.63;;;;;;;;;;5071489;28;20498;-75
2023/05/28 04:41:54;;;;;;;23.17;21.60;;;;;;;;;;5072093;28;20480;-75
2023/05/28 04:44:25;;;;;;;22.23;20.83;;;;;;;;;;5072171;28;20449;-77
2023/05/28 04:46:52;;;;;;;23.03;21.43;;;;;;;;;;5072063;28;20438;-76
2023/05/28 04:49:19;;;;;;;22.60;20.70;;;;;;;;;;5072030;28;21085;-75
2023/05/28 04:51:47;;;;;;;22.90;21.00;;;;;;;;;;5072546;28;20445;-75
2023/05/28 04:54:14;;;;;;;22.97;20.97;;;;;;;;;;5072422;28;20453;-74
2023/05/28 04:56:41;;;;;;;23.30;21.60;;;;;;;;;;5071939;28;20494;-75
2023/05/28 04:59:09;;;;;;;22.53;20.87;;;;;;;;;;5071329;28;20511;-74
2023/05/28 05:01:36;;;;;;;22.63;21.00;;;;;;;;;;5072025;28;20457;-75
2023/05/28 05:04:03;;;;;;;22.33;20.80;;;;;;;;;;5072193;28;20449;-75
2023/05/28 05:06:30;;;;;;;23.10;21.60;;;;;;;;;;5071769;28;20458;-76
2023/05/28 05:08:58;;;;;;;23.50;21.90;;;;;;;;;;5072178;28;20481;-75
2023/05/28 05:11:26;;;;;;;23.00;21.20;;;;;;;;;;5071297;28;20471;-75
2023/05/28 05:13:53;;;;;;;22.70;21.00;;;;;;;;;;5072222;28;20461;-75
2023/05/28 05:16:20;;;;;;;23.40;21.50;;;;;;;;;;5071840;28;20445;-76
2023/05/28 05:18:48;;;;;;;22.87;21.07;;;;;;;;;;5072555;28;20530;-75
2023/05/28 05:21:15;;;;;;;23.40;21.50;;;;;;;;;;5072020;28;20507;-76
2023/05/28 05:23:42;;;;;;;22.93;21.47;;;;;;;;;;5072093;28;20445;-75
2023/05/28 05:26:12;;;;;;;21.60;20.30;;;;;;;;;;5071569;28;20456;-75
2023/05/28 05:28:39;;;;;;;22.93;21.57;;;;;;;;;;5073695;28;20481;-74
2023/05/28 05:31:06;;;;;;;22.17;20.57;;;;;;;;;;5075413;28;20475;-76
2023/05/28 05:33:33;;;;;;;22.57;21.00;;;;;;;;;;5075580;28;20446;-75
2023/05/28 05:36:00;;;;;;;22.50;21.00;;;;;;;;;;5075004;28;20507;-75
2023/05/28 05:38:27;;;;;;;22.83;21.23;;;;;;;;;;5075386;28;20504;-75
2023/05/28 05:40:54;;;;;;;21.83;20.43;;;;;;;;;;5074600;28;20460;-74
2023/05/28 05:43:23;;;;;;;21.67;20.33;;;;;;;;;;5075138;28;20446;-74
2023/05/28 05:45:50;;;;;;;21.93;20.43;;;;;;;;;;5074865;28;20446;-75
2023/05/28 05:48:17;;;;;;;22.83;21.07;;;;;;;;;;5075311;28;20450;-75
2023/05/28 05:50:50;;;;;;;22.53;20.57;;;;;;;;;;5074451;28;20539;-75
2023/05/28 05:53:17;;;;;;;23.87;22.07;;;;;;;;;;5075046;28;20466;-75
2023/05/28 05:55:44;;;;;;;23.10;21.60;;;;;;;;;;5074666;28;20507;-75
2023/05/28 05:58:11;;;;;;;22.83;21.33;;;;;;;;;;5075306;28;20416;-75
2023/05/28 06:00:40;;;;;;;21.97;20.33;;;;;;;;;;5074952;28;20438;-75
2023/05/28 06:03:07;;;;;;;23.40;21.90;;;;;;;;;;5074879;28;20996;-75
2023/05/28 06:05:34;;;;;;;22.87;21.47;;;;;;;;;;5074517;28;20460;-76
2023/05/28 06:08:02;;;;;;;24.10;22.30;;;;;;;;;;5074388;28;20466;-75
2023/05/28 06:10:29;;;;;;;22.70;21.40;;;;;;;;;;5074333;28;20535;-75
2023/05/28 06:12:56;;;;;;;23.53;21.93;;;;;;;;;;5074981;28;20500;-76
2023/05/28 06:15:24;;;;;;;24.23;22.60;;;;;;;;;;5074800;28;20454;-76
2023/05/28 06:17:53;;;;;;;22.53;21.23;;;;;;;;;;5073878;28;20448;-75
2023/05/28 06:20:20;;;;;;;23.20;21.70;;;;;;;;;;5074424;28;20494;-75
2023/05/28 06:22:47;;;;;;;22.57;21.17;;;;;;;;;;5074276;28;20456;-76
2023/05/28 06:25:14;;;;;;;22.20;20.77;;;;;;;;;;5074518;28;20509;-76
2023/05/28 06:27:41;;;;;;;22.90;21.30;;;;;;;;;;5073245;28;20546;-75
2023/05/28 06:30:10;;;;;;;23.20;21.60;;;;;;;;;;5074238;28;20998;-75
2023/05/28 06:32:37;;;;;;;23.13;21.40;;;;;;;;;;5074289;28;20438;-76
2023/05/28 06:35:05;;;;;;;22.73;21.03;;;;;;;;;;5074045;28;20455;-75
2023/05/28 06:37:32;;;;;;;24.10;22.40;;;;;;;;;;5073516;28;20494;-75
2023/05/28 06:40:00;;;;;;;24.40;22.80;;;;;;;;;;5072761;28;20528;-75
2023/05/28 06:42:27;;;;;;;23.23;21.63;;;;;;;;;;5074326;28;20491;-76
2023/05/28 06:44:54;;;;;;;23.00;21.67;;;;;;;;;;5074245;28;20454;-76
2023/05/28 06:47:21;;;;;;;22.60;20.80;;;;;;;;;;5073711;28;20461;-75
2023/05/28 06:49:48;;;;;;;23.80;22.10;;;;;;;;;;5073475;28;20560;-75
2023/05/28 06:52:18;;;;;;;25.13;23.07;;;;;;;;;;5074241;28;20451;-76
2023/05/28 06:54:45;;;;;;;23.90;22.07;;;;;;;;;;5073667;28;20829;-77
2023/05/28 06:57:12;;;;;;;24.77;22.73;;;;;;;;;;5073489;28;20526;-76
2023/05/28 06:59:40;;;;;;;23.90;22.40;;;;;;;;;;5073846;28;20517;-76
2023/05/28 07:02:07;;;;;;;23.90;21.97;;;;;;;;;;5073724;28;20824;-75
2023/05/28 07:04:33;;;;;;;23.17;21.57;;;;;;;;;;5073893;28;20454;-75
2023/05/28 07:07:01;;;;;;;23.37;21.90;;;;;;;;;;5073220;28;20450;-75
2023/05/28 07:09:29;;;;;;;23.47;21.77;;;;;;;;;;5073086;28;20480;-76
2023/05/28 07:11:56;;;;;;;23.17;21.57;;;;;;;;;;5073561;28;20414;-75
2023/05/28 07:14:23;;;;;;;23.27;21.57;;;;;;;;;;5073955;28;20783;-75
2023/05/28 07:16:50;;;;;;;23.07;21.57;;;;;;;;;;5072957;28;20489;-75
2023/05/28 07:19:17;;;;;;;23.53;21.70;;;;;;;;;;5073209;28;20447;-80
2023/05/28 07:21:44;;;;;;;23.57;21.80;;;;;;;;;;5072584;28;20474;-75
2023/05/28 07:24:11;;;;;;;22.90;21.50;;;;;;;;;;5073021;28;20953;-74
2023/05/28 07:26:40;;;;;;;22.10;20.63;;;;;;;;;;5072157;28;21025;-75
2023/05/28 07:29:07;;;;;;;23.10;21.60;;;;;;;;;;5073411;28;20516;-82
2023/05/28 07:31:35;;;;;;;23.27;21.67;;;;;;;;;;5072530;28;20522;-75
2023/05/28 07:34:02;;;;;;;23.77;22.17;;;;;;;;;;5073205;28;20498;-74
2023/05/28 07:36:29;;;;;;;24.17;22.47;;;;;;;;;;5072372;28;20426;-74
2023/05/28 07:38:56;;;;;;;23.73;22.17;;;;;;;;;;5072580;28;20459;-77
2023/05/28 07:41:23;;;;;;;23.10;21.60;;;;;;;;;;5071922;28;20485;-75
2023/05/28 07:43:51;;;;;;;23.43;21.93;;;;;;;;;;5072821;28;20904;-75
2023/05/28 07:46:18;;;;;;;23.67;22.07;;;;;;;;;;5072202;28;20452;-74
2023/05/28 07:48:45;;;;;;;23.67;22.17;;;;;;;;;;5072668;28;20443;-74
2023/05/28 07:51:12;;;;;;;23.50;22.03;;;;;;;;;;5072646;28;20541;-74
2023/05/28 07:53:39;;;;;;;23.80;22.20;;;;;;;;;;5073164;28;20449;-74
2023/05/28 07:56:08;;;;;;;23.20;21.80;;;;;;;;;;5072466;28;20460;-75
2023/05/28 07:58:35;;;;;;;22.83;21.27;;;;;;;;;;5073194;28;20457;-74
2023/05/28 08:01:08;;;;;;;23.90;22.50;;;;;;;;;;5073196;28;20464;-74
2023/05/28 08:03:36;;;;;;;23.10;21.70;;;;;;;;;;5071636;28;20438;-75
2023/05/28 08:06:03;;;;;;;23.70;22.10;;;;;;;;;;5072535;28;20436;-75
2023/05/28 08:08:30;;;;;;;23.80;22.20;;;;;;;;;;5072911;28;20431;-75
2023/05/28 08:10:57;;;;;;;23.03;21.37;;;;;;;;;;5072345;28;20485;-75
2023/05/28 08:13:25;;;;;;;24.23;22.40;;;;;;;;;;5072797;28;20436;-75
2023/05/28 08:15:52;;;;;;;23.90;22.20;;;;;;;;;;5071925;28;20993;-75
2023/05/28 08:18:20;;;;;;;23.40;21.90;;;;;;;;;;5071977;28;20500;-74
2023/05/28 08:20:47;;;;;;;23.60;22.00;;;;;;;;;;5072245;28;20435;-75
2023/05/28 08:23:14;;;;;;;22.73;21.23;;;;;;;;;;5072564;28;20947;-75
2023/05/28 08:25:41;;;;;;;24.07;22.50;;;;;;;;;;5071889;28;20851;-75
2023/05/28 08:28:09;;;;;;;24.57;22.67;;;;;;;;;;5072024;28;20447;-75
2023/05/28 08:30:36;;;;;;;24.23;22.53;;;;;;;;;;5072706;28;20595;-76
2023/05/28 08:33:03;;;;;;;23.30;21.80;;;;;;;;;;5072959;28;20453;-75
2023/05/28 08:35:31;;;;;;;23.37;21.87;;;;;;;;;;5072581;28;20457;-77
2023/05/28 08:37:58;;;;;;;24.23;22.67;;;;;;;;;;5073178;28;20456;-78
2023/05/28 08:40:26;;;;;;;23.30;21.53;;;;;;;;;;5072062;28;21074;-75
2023/05/28 08:42:53;;;;;;;22.70;21.30;;;;;;;;;;5072240;28;20419;-74
2023/05/28 08:45:20;;;;;;;23.70;21.87;;;;;;;;;;5072343;28;20502;-75
2023/05/28 08:47:51;;;;;;;23.70;22.10;;;;;;;;;;5071688;28;20917;-75
2023/05/28 08:50:18;;;;;;;22.50;21.00;;;;;;;;;;5072339;28;20488;-75
2023/05/28 08:52:48;;;;;;;23.50;21.83;;;;;;;;;;5072263;28;20427;-75
2023/05/28 08:55:15;;;;;;;23.27;21.60;;;;;;;;;;5072391;28;20419;-75
2023/05/28 08:57:42;;;;;;;24.00;22.47;;;;;;;;;;5071560;28;20464;-74
2023/05/28 09:00:11;;;;;;;23.70;22.20;;;;;;;;;;5072242;28;20495;-74
2023/05/28 09:02:40;;;;;;;23.40;21.80;;;;;;;;;;5074428;28;20982;-75
2023/05/28 09:05:07;;;;;;;23.43;21.83;;;;;;;;;;5075813;28;20424;-76
2023/05/28 09:07:34;;;;;;;22.70;21.30;;;;;;;;;;5075211;28;20461;-75
2023/05/28 09:10:03;;;;;;;23.97;22.27;;;;;;;;;;5075136;28;20463;-75
2023/05/28 09:12:30;;;;;;;24.37;22.40;;;;;;;;;;5075649;28;20427;-76
2023/05/28 09:14:57;;;;;;;24.07;22.30;;;;;;;;;;5075684;28;20457;-75
2023/05/28 09:17:34;;;;;;;23.90;22.20;;;;;;;;;;5074935;28;20980;-75
2023/05/28 09:20:02;;;;;;;23.80;22.17;;;;;;;;;;5074804;28;20478;-76
2023/05/28 09:22:29;;;;;;;24.37;22.77;;;;;;;;;;5075580;28;20530;-75
2023/05/28 09:24:56;;;;;;;23.77;22.23;;;;;;;;;;5075792;28;20832;-76
2023/05/28 09:27:25;;;;;;;25.07;23.30;;;;;;;;;;5075016;28;20840;-75
2023/05/28 09:29:53;;;;;;;24.60;22.90;;;;;;;;;;5076981;28;20466;-75
2023/05/28 09:32:21;;;;;;;24.23;22.53;;;;;;;;;;5077468;28;20460;-76
2023/05/28 09:34:49;;;;;;;24.37;22.77;;;;;;;;;;5075234;28;20460;-74
2023/05/28 09:37:17;;;;;;;23.23;21.70;;;;;;;;;;5074694;28;20477;-75
2023/05/28 09:39:44;;;;;;;24.40;22.80;;;;;;;;;;5075310;28;20447;-76
2023/05/28 09:42:12;;;;;;;24.50;22.83;;;;;;;;;;5075612;28;20445;-77
2023/05/28 09:44:41;;;;;;;24.07;22.37;;;;;;;;;;5075172;28;20513;-75
2023/05/28 09:47:15;;;;;;;22.93;21.43;;;;;;;;;;5075457;28;20456;-76
2023/05/28 09:49:44;;;;;;;24.83;22.93;;;;;;;;;;5074505;28;20530;-75
2023/05/28 09:52:11;;;;;;;25.20;23.17;;;;;;;;;;5075571;28;20440;-83
2023/05/28 09:54:40;;;;;;;23.47;22.00;;;;;;;;;;5075145;28;20502;-75
2023/05/28 09:57:08;;;;;;;24.63;22.87;;;;;;;;;;5073654;28;20456;-75
2023/05/28 09:59:40;;;;;;;25.33;23.63;;;;;;;;;;5075022;28;20476;-80
2023/05/28 10:02:17;;;;;;;24.43;22.43;;;;;;;;;;5075114;28;20526;-78
2023/05/28 10:04:45;;;;;;;24.23;22.33;;;;;;;;;;5076605;28;20408;-79
2023/05/28 10:07:15;;;;;;;24.13;22.43;;;;;;;;;;5075848;28;20982;-82
2023/05/28 10:09:43;;;;;;;24.30;22.50;;;;;;;;;;5075023;28;20470;-76
2023/05/28 10:12:11;;;;;;;25.07;23.30;;;;;;;;;;5075893;28;20506;-75
2023/05/28 10:14:38;;;;;;;24.00;22.50;;;;;;;;;;5073076;28;20923;-76
2023/05/28 10:17:05;;;;;;;25.97;23.87;;;;;;;;;;5074326;28;20493;-75
2023/05/28 10:19:35;;;;;;;25.87;24.20;;;;;;;;;;5074428;28;20437;-76
2023/05/28 10:22:03;;;;;;;26.13;24.43;;;;;;;;;;5072311;28;20446;-76
2023/05/28 10:24:30;;;;;;;25.13;23.63;;;;;;;;;;5074037;28;20453;-75
2023/05/28 10:26:58;;;;;;;25.43;23.67;;;;;;;;;;5073825;28;20437;-75
2023/05/28 10:29:25;;;;;;;25.73;24.03;;;;;;;;;;5072938;28;20466;-77
2023/05/28 10:32:00;;;;;;;24.83;23.20;;;;;;;;;;5072342;28;20451;-75
2023/05/28 10:34:31;;;;;;;24.80;22.90;;;;;;;;;;5074539;28;20404;-76
2023/05/28 10:37:02;;;;;;;24.53;22.70;;;;;;;;;;5073053;28;20412;-76
2023/05/28 10:39:29;;;;;;;25.00;23.20;;;;;;;;;;5074068;28;21267;-76
2023/05/28 10:41:58;;;;;;;24.57;22.90;;;;;;;;;;5074276;28;20416;-76
2023/05/28 10:44:25;;;;;;;24.57;22.77;;;;;;;;;;5073941;28;20444;-76
2023/05/28 10:46:57;;;;;;;25.00;23.10;;;;;;;;;;5073555;28;20908;-76
2023/05/28 10:49:25;;;;;;;24.43;22.77;;;;;;;;;;5074011;28;20448;-76
2023/05/28 10:51:56;;;;;;;25.37;23.67;;;;;;;;;;5074121;28;20455;-76
2023/05/28 10:54:25;;;;;;;25.43;23.60;;;;;;;;;;5073421;28;20448;-76
2023/05/28 10:57:09;;;;;;;25.07;23.27;;;;;;;;;;5073042;28;20548;-76
2023/05/28 10:59:40;;;;;;;24.90;23.10;;;;;;;;;;5073224;28;20940;-75
2023/05/28 11:02:08;;;;;;;24.50;22.80;;;;;;;;;;5073710;28;20453;-76
2023/05/28 11:04:35;;;;;;;24.27;22.60;;;;;;;;;;5073066;28;20448;-76
2023/05/28 11:07:03;;;;;;;24.77;23.10;;;;;;;;;;5073287;28;20439;-76
2023/05/28 11:09:31;;;;;;;23.20;21.60;;;;;;;;;;5073733;28;20455;-75
2023/05/28 11:12:01;;;;;;;23.73;22.17;;;;;;;;;;5073356;28;20967;-76
2023/05/28 11:14:31;;;;;;;24.43;22.80;;;;;;;;;;5073476;28;20570;-75
2023/05/28 11:16:58;;;;;;;24.77;23.23;;;;;;;;;;5073211;28;20463;-76
2023/05/28 11:19:25;;;;;;;23.80;22.20;;;;;;;;;;5072610;28;20452;-75
2023/05/28 11:21:52;;;;;;;24.27;22.67;;;;;;;;;;5073269;28;20487;-76
2023/05/28 11:24:19;;;;;;;24.53;22.80;;;;;;;;;;5073395;28;20427;-76
2023/05/28 11:26:47;;;;;;;24.73;22.63;;;;;;;;;;5072240;28;20965;-76
2023/05/28 11:29:16;;;;;;;23.80;22.17;;;;;;;;;;5073059;28;20482;-75
2023/05/28 11:31:44;;;;;;;25.50;23.50;;;;;;;;;;5073538;28;20678;-76
2023/05/28 11:34:11;;;;;;;35.97;33.00;;;;;;;;;;5072779;28;20437;-76
2023/05/28 11:36:42;;;;;;;27.70;25.60;;;;;;;;;;5072574;28;20523;-75
2023/05/28 11:39:09;;;;;;;25.20;23.50;;;;;;;;;;5072506;28;20436;-75
2023/05/28 11:41:36;;;;;;;23.90;22.40;;;;;;;;;;5072868;28;20789;-74
2023/05/28 11:44:18;;;;;;;29.63;27.37;;;;;;;;;;5072986;28;20437;-75
2023/05/28 11:46:45;;;;;;;23.47;21.97;;;;;;;;;;5072023;28;20976;-76
2023/05/28 11:49:12;;;;;;;24.50;22.80;;;;;;;;;;5072771;28;20575;-75
2023/05/28 11:51:40;;;;;;;24.97;23.03;;;;;;;;;;5072784;28;20482;-75
2023/05/28 11:54:07;;;;;;;25.60;23.43;;;;;;;;;;5073079;28;20428;-75
2023/05/28 11:56:35;;;;;;;23.17;21.60;;;;;;;;;;5071715;28;20447;-75
2023/05/28 11:59:04;;;;;;;24.67;22.77;;;;;;;;;;5072807;28;20407;-75
2023/05/28 12:01:33;;;;;;;23.77;22.07;;;;;;;;;;5072994;28;20503;-75
2023/05/28 12:04:06;;;;;;;24.40;22.70;;;;;;;;;;5072652;28;20427;-75
2023/05/28 12:06:33;;;;;;;24.80;23.00;;;;;;;;;;5072093;28;20913;-74
2023/05/28 12:09:04;;;;;;;24.23;22.63;;;;;;;;;;5072677;28;20503;-76
2023/05/28 12:11:31;;;;;;;24.97;23.10;;;;;;;;;;5072122;28;20448;-76
2023/05/28 12:13:59;;;;;;;23.40;21.70;;;;;;;;;;5072840;28;20450;-74
2023/05/28 12:16:29;;;;;;;24.97;23.07;;;;;;;;;;5071868;28;20447;-76
2023/05/28 12:19:02;;;;;;;28.87;26.27;;;;;;;;;;5072451;28;20432;-76
2023/05/28 12:21:29;;;;;;;48.47;44.30;;;;;;;;;;5072499;28;20431;-76
2023/05/28 12:23:56;;;;;;;34.80;32.10;;;;;;;;;;5072154;28;20444;-75
2023/05/28 12:26:23;;;;;;;25.33;23.63;;;;;;;;;;5072005;28;20454;-74
2023/05/28 12:28:50;;;;;;;26.30;24.57;;;;;;;;;;5072401;28;20424;-74
2023/05/28 12:31:18;;;;;;;25.27;23.47;;;;;;;;;;5072024;28;20456;-75
2023/05/28 12:33:46;;;;;;;25.20;23.33;;;;;;;;;;5072398;28;20471;-75
2023/05/28 12:36:13;;;;;;;25.57;22.93;;;;;;;;;;5071213;28;20956;-75
2023/05/28 12:38:40;;;;;;;24.87;23.13;;;;;;;;;;5074793;28;20983;-75
2023/05/28 12:41:07;;;;;;;26.37;24.57;;;;;;;;;;5076017;28;20558;-75
2023/05/28 12:43:34;;;;;;;25.83;24.00;;;;;;;;;;5076311;28;20497;-77
2023/05/28 12:46:01;;;;;;;25.63;23.77;;;;;;;;;;5076151;28;20521;-75
2023/05/28 12:48:28;;;;;;;25.33;23.50;;;;;;;;;;5075732;28;20489;-75
2023/05/28 12:50:56;;;;;;;27.00;25.00;;;;;;;;;;5075979;28;20464;-75
2023/05/28 12:53:23;;;;;;;25.00;23.40;;;;;;;;;;5076035;28;20429;-74
2023/05/28 12:55:50;;;;;;;25.03;23.23;;;;;;;;;;5075478;28;20421;-75
2023/05/28 12:58:17;;;;;;;25.37;23.67;;;;;;;;;;5075512;28;20440;-75
2023/05/28 13:00:44;;;;;;;25.20;23.37;;;;;;;;;;5076053;28;20473;-75
2023/05/28 13:03:11;;;;;;;25.30;23.47;;;;;;;;;;5076192;28;20424;-74
2023/05/28 13:05:38;;;;;;;25.50;23.70;;;;;;;;;;5075591;28;20416;-75
2023/05/28 13:08:06;;;;;;;25.77;23.87;;;;;;;;;;5075919;28;20432;-75
2023/05/28 13:10:33;;;;;;;25.80;24.00;;;;;;;;;;5074948;28;20494;-75
2023/05/28 13:13:00;;;;;;;26.73;25.03;;;;;;;;;;5074934;28;20481;-79
2023/05/28 13:15:27;;;;;;;26.93;25.30;;;;;;;;;;5077005;28;20897;-75
2023/05/28 13:17:54;;;;;;;25.23;23.50;;;;;;;;;;5075547;28;20921;-84
2023/05/28 13:20:21;;;;;;;26.10;24.50;;;;;;;;;;5057341;28;20491;-77
2023/05/28 13:22:48;;;;;;;26.23;24.50;;;;;;;;;;5055289;28;20437;-77
2023/05/28 13:25:16;;;;;;;26.00;24.40;;;;;;;;;;5055873;28;20429;-77
2023/05/28 13:27:43;;;;;;;26.10;24.40;;;;;;;;;;5055286;28;20502;-76
2023/05/28 13:30:11;;;;;;;26.50;24.17;;;;;;;;;;5056886;28;20509;-76
2023/05/28 13:32:38;;;;;;;25.97;24.10;;;;;;;;;;5075445;28;20558;-76
2023/05/28 13:35:05;;;;;;;25.57;23.77;;;;;;;;;;5076029;28;20871;-76
2023/05/28 13:37:33;;;;;;;25.70;23.90;;;;;;;;;;5073657;28;20476;-76
2023/05/28 13:40:00;;;;;;;25.03;23.30;;;;;;;;;;5075383;28;20456;-76
2023/05/28 13:42:28;;;;;;;25.13;23.53;;;;;;;;;;5075176;28;20445;-76
2023/05/28 13:44:55;;;;;;;25.80;24.00;;;;;;;;;;5074102;28;21020;-77
2023/05/28 13:47:22;;;;;;;25.83;24.00;;;;;;;;;;5073806;28;20440;-78
2023/05/28 13:49:50;;;;;;;25.33;23.63;;;;;;;;;;5074346;28;20513;-76
2023/05/28 13:52:16;;;;;;;25.53;23.93;;;;;;;;;;5074787;28;20537;-76
2023/05/28 13:54:43;;;;;;;25.93;24.33;;;;;;;;;;5075447;28;20450;-75
2023/05/28 13:57:10;;;;;;;26.80;24.67;;;;;;;;;;5076699;28;20446;-80
2023/05/28 13:59:39;;;;;;;24.90;23.20;;;;;;;;;;5077616;28;20582;-76
2023/05/28 14:02:06;;;;;;;24.87;23.10;;;;;;;;;;5076343;28;20438;-76
2023/05/28 14:04:33;;;;;;;26.27;24.37;;;;;;;;;;5074201;28;20449;-76
2023/05/28 14:07:00;;;;;;;26.47;24.30;;;;;;;;;;5075005;28;20450;-75
2023/05/28 14:09:27;;;;;;;26.30;24.50;;;;;;;;;;5073792;28;20466;-75
2023/05/28 14:11:55;;;;;;;25.87;24.03;;;;;;;;;;5075081;28;20470;-75
2023/05/28 14:14:22;;;;;;;25.67;24.07;;;;;;;;;;5073982;28;20424;-76
2023/05/28 14:16:51;;;;;;;26.10;24.40;;;;;;;;;;5074271;28;20436;-76
2023/05/28 14:19:18;;;;;;;25.17;23.40;;;;;;;;;;5074826;28;20871;-75